createdAt,value
2018-09-03T00:00:45.437Z,91.90
2018-09-03T00:20:38.604Z,91.80
2018-09-03T00:23:17.529Z,91.90
2018-09-03T00:25:54.607Z,92.10
2018-09-03T00:28:30.666Z,92.10
2018-09-03T00:31:10.816Z,92.30
2018-09-03T00:51:04.802Z,91.30
2018-09-03T00:53:41.680Z,91.20
2018-09-03T01:13:34.195Z,91.10
2018-09-03T01:16:09.668Z,91.10
2018-09-03T01:18:52.714Z,91.20
2018-09-03T01:21:29.769Z,91.10
2018-09-03T01:24:05.831Z,90.70
2018-09-03T01:44:01.042Z,91.50
2018-09-03T01:46:39.761Z,91.50
2018-09-03T02:03:46.831Z,90.70
2018-09-03T02:06:22.687Z,90.50
2018-09-03T02:09:00.792Z,90.50
2018-09-03T02:11:38.079Z,90.20
2018-09-03T02:14:13.724Z,89.80
2018-09-03T02:16:51.839Z,89.80
2018-09-03T02:42:35.818Z,90.20
2018-09-03T02:45:12.693Z,90.30
2018-09-03T03:36:47.835Z,88.90
2018-09-03T03:39:23.893Z,89.00
2018-09-03T04:09:17.328Z,90.00
2018-09-03T04:12:02.808Z,89.90
2018-09-03T04:14:45.829Z,90.10
2018-09-03T04:17:24.755Z,90.30
2018-09-03T04:20:07.767Z,90.50
2018-09-03T04:40:03.804Z,90.20
2018-09-03T04:42:44.780Z,90.40
2018-09-03T05:05:28.762Z,91.00
2018-09-03T05:08:06.847Z,91.10
2018-09-03T05:13:40.675Z,91.10
2018-09-03T05:36:35.916Z,91.20
2018-09-03T06:19:42.319Z,90.70
2018-09-03T06:22:25.955Z,90.60
2018-09-03T06:25:08.768Z,90.50
2018-09-03T06:27:51.793Z,90.40
2018-09-03T06:30:28.052Z,90.50
2018-09-03T06:33:10.053Z,90.30
2018-09-03T06:36:03.463Z,89.40
2018-09-03T06:38:46.951Z,89.20
2018-09-03T06:41:35.701Z,89.30
2018-09-03T06:44:15.035Z,88.80
2018-09-03T06:46:54.998Z,88.70
2018-09-03T06:49:33.459Z,88.70
2018-09-03T06:55:15.720Z,88.80
2018-09-03T06:58:00.177Z,88.50
2018-09-03T07:00:42.991Z,88.70
2018-09-03T07:03:26.239Z,88.80
2018-09-03T07:06:05.973Z,88.70
2018-09-03T07:08:43.251Z,88.40
2018-09-03T07:11:33.028Z,88.60
2018-09-03T07:14:11.952Z,88.50
2018-09-03T07:16:58.043Z,88.70
2018-09-03T07:19:33.282Z,89.00
2018-09-03T07:22:14.052Z,88.90
2018-09-03T07:24:50.316Z,88.90
2018-09-03T07:27:37.018Z,88.70
2018-09-03T07:30:16.149Z,89.00
2018-09-03T07:35:35.634Z,88.90
2018-09-03T07:38:15.171Z,88.50
2018-09-03T07:40:52.869Z,88.40
2018-09-03T07:43:34.047Z,88.40
2018-09-03T07:46:11.538Z,88.10
2018-09-03T07:48:51.077Z,88.00
2018-09-03T07:54:17.122Z,88.30
2018-09-03T07:59:50.127Z,88.50
2018-09-03T08:02:27.204Z,88.20
2018-09-03T08:05:06.130Z,87.70
2018-09-03T08:07:45.460Z,87.40
2018-09-03T08:10:29.302Z,87.10
2018-09-03T08:13:08.647Z,86.90
2018-09-03T08:15:58.227Z,86.00
2018-09-03T08:18:38.374Z,85.60
2018-09-03T08:21:16.063Z,85.30
2018-09-03T08:23:52.555Z,85.20
2018-09-03T08:26:28.178Z,85.60
2018-09-03T08:29:05.259Z,84.70
2018-09-03T08:31:40.088Z,84.90
2018-09-03T08:34:30.483Z,84.90
2018-09-03T08:37:09.202Z,84.80
2018-09-03T08:39:45.670Z,84.30
2018-09-03T08:42:22.974Z,84.20
2018-09-03T08:44:59.217Z,84.40
2018-09-03T08:47:36.512Z,84.50
2018-09-03T08:50:17.276Z,84.50
2018-09-03T08:52:52.308Z,84.30
2018-09-03T08:55:30.202Z,84.50
2018-09-03T08:58:08.311Z,83.60
2018-09-03T09:00:48.259Z,83.60
2018-09-03T09:03:31.483Z,84.10
2018-09-03T09:06:21.506Z,84.40
2018-09-03T09:09:02.706Z,83.90
2018-09-03T09:11:41.393Z,83.60
2018-09-03T09:14:31.735Z,83.30
2018-09-03T09:17:28.731Z,83.10
2018-09-03T09:20:25.717Z,83.50
2018-09-03T09:23:07.452Z,83.80
2018-09-03T09:25:45.147Z,84.40
2018-09-03T09:28:37.716Z,84.10
2018-09-03T09:31:17.536Z,83.90
2018-09-03T09:33:55.230Z,83.40
2018-09-03T09:36:34.729Z,83.40
2018-09-03T09:39:16.357Z,83.40
2018-09-03T09:42:01.219Z,83.80
2018-09-03T09:44:44.241Z,83.30
2018-09-03T09:47:26.765Z,83.50
2018-09-03T09:50:26.056Z,83.30
2018-09-03T09:53:12.346Z,83.70
2018-09-03T10:16:03.689Z,83.00
2018-09-03T10:18:47.733Z,82.50
2018-09-03T10:21:27.073Z,81.70
2018-09-03T10:24:07.431Z,82.00
2018-09-03T10:26:47.380Z,81.80
2018-09-03T10:46:47.295Z,80.00
2018-09-03T10:49:32.367Z,79.60
2018-09-03T11:09:26.146Z,79.70
2018-09-03T11:12:06.296Z,80.30
2018-09-03T11:32:07.657Z,78.00
2018-09-03T11:37:29.398Z,78.20
2018-09-03T11:40:07.518Z,78.20
2018-09-03T11:42:48.678Z,78.70
2018-09-03T12:05:39.608Z,79.40
2018-09-03T12:54:30.707Z,76.00
2018-09-03T12:57:18.645Z,75.60
2018-09-03T13:00:05.147Z,75.80
2018-09-03T13:02:41.867Z,76.00
2018-09-03T13:05:19.716Z,76.10
2018-09-03T13:31:01.658Z,73.40
2018-09-03T14:37:16.816Z,74.30
2018-09-03T14:39:57.797Z,73.90
2018-09-03T14:42:39.804Z,73.90
2018-09-03T14:45:23.843Z,73.70
2018-09-03T14:50:57.862Z,73.70
2018-09-03T14:53:40.889Z,74.30
2018-09-03T14:56:25.133Z,73.60
2018-09-03T14:59:02.829Z,74.00
2018-09-03T15:01:38.889Z,73.80
2018-09-03T15:04:21.706Z,73.80
2018-09-03T15:10:02.903Z,74.40
2018-09-03T15:13:04.340Z,74.50
2018-09-03T15:15:44.913Z,74.10
2018-09-03T15:27:13.864Z,72.90
2018-09-03T17:23:20.134Z,78.20
2018-09-03T17:26:46.790Z,78.40
2018-09-03T17:29:28.468Z,79.70
2018-09-03T17:35:49.907Z,79.60
2018-09-03T17:38:33.944Z,79.80
2018-09-03T17:41:14.100Z,79.30
2018-09-03T17:43:55.081Z,79.50
2018-09-03T17:49:29.099Z,79.60
2018-09-03T18:18:10.990Z,80.30
2018-09-03T18:23:43.591Z,79.70
2018-09-03T18:26:20.128Z,79.80
2018-09-03T18:28:57.549Z,79.80
2018-09-03T18:31:34.090Z,79.70
2018-09-03T18:48:33.165Z,79.80
2018-09-03T19:08:27.152Z,80.30
2018-09-03T19:11:02.185Z,80.00
2018-09-03T19:33:49.648Z,81.00
2018-09-03T19:36:31.052Z,81.10
2018-09-03T19:39:09.532Z,80.90
2018-09-03T19:41:46.196Z,81.20
2018-09-03T20:21:52.193Z,82.60
2018-09-03T20:41:50.689Z,84.00
2018-09-03T21:07:32.000Z,84.70
2018-09-03T21:10:16.865Z,84.40
2018-09-03T21:36:01.267Z,84.70
2018-09-03T21:38:39.573Z,84.70
2018-09-03T21:41:18.771Z,84.70
2018-09-03T21:44:02.342Z,84.80
2018-09-03T21:46:38.401Z,84.80
2018-09-03T21:49:17.526Z,84.80
2018-09-03T21:51:54.404Z,84.80
2018-09-03T22:14:42.058Z,85.60
2018-09-03T22:54:46.412Z,86.30
2018-09-03T22:57:27.591Z,86.50
2018-09-03T23:00:05.284Z,86.80
2018-09-03T23:02:45.433Z,87.00
2018-09-03T23:05:24.360Z,87.20
2018-09-03T23:08:00.827Z,87.30
2018-09-03T23:30:52.372Z,87.60
2018-09-03T23:33:28.426Z,87.70
2018-09-03T23:36:03.464Z,87.70
2018-09-03T23:38:38.883Z,87.70
2018-09-03T23:41:13.326Z,87.60
2018-09-03T23:43:48.359Z,87.40
2018-09-03T23:46:24.210Z,87.50
2018-09-03T23:49:00.472Z,87.50
2018-09-03T23:51:35.504Z,87.60
2018-09-03T23:54:10.335Z,87.90
2018-09-03T23:56:47.418Z,88.10
2018-09-03T23:59:23.472Z,87.90
